Main page
METAR-TAF:

METAR-TAF

Airports :

Qurghonteppa International Airport

Qurghonteppa, Tajikistan

latitude: 37-51-44N, longitude: 068-51-46E, elevation: 449 m

Current weather observation

The report was made 46 minutes ago, at 09:00 UTC
Wind 4 kt from the Southwest, varying between South and West
Temperature 34°C
Humidity 19%
Pressure 1011 hPa
Visibility 10 km or more

METAR: UTDT 240900Z 22002MPS 180V280 9999 NSC 34/07 Q1011 R35/CLRD70 RMK QFE719/0959

Time: 14:46 (09:46 UTC)

Forecast

The report was made 46 minutes ago, at 09:00 UTC
Forecast valid from 24 at 10 UTC to 24 at 19 UTC
Wind 4 kt from variable directions
Visibility 10 km or more

TAF: UTDT 240900Z 2410/2419 VRB02MPS 9999 NSC

Weather observations and forecasts of more than 4000 airports (METAR and TAF reports).

The available stations are represented by yellow and red dots on the map.

Hover mouse over dot to see the name of the station.

Then click to see weather observations and forecasts.

To change the map : click on the green buttons with a black cross to zoom in, on the green button with a dash to zoom out, or on the green arrows for adjacent maps.


METAR-TAF: